Flight Track Log - Related Links

Times and Time Zones

All times are in EDT time to prevent confusion due to time zone crossing. See the DAL4165 flight status page for this flight to view local times or setup timezone preferences in your user account.

Time Position Orientation Groundspeed Altitude Reporting Facility
EDT Latitude Longitude Course Direction KTS MPH feet Rate Location/Type
Wed 04:29:56 PM 33.6500 -84.4500 252° West 60 69 1,800  Level Atlanta TRACON
Wed 04:30:50 PM 33.6167 -84.4500 180° South 91 105 1,000 474 Descending Atlanta TRACON
Wed 04:31:50 PM 33.6500 -84.3667 64° Northeast 185 213 2,700 1,667 Climbing Atlanta TRACON
Wed 04:32:56 PM 33.7000 -84.2833 54° Northeast 277 319 4,500 2,200 Climbing Atlanta TRACON
Wed 04:33:50 PM 33.7667 -84.2833 360° North 278 320 7,100 2,684 Climbing Atlanta TRACON
Wed 04:34:00 PM 33.8001 -84.4878 270° West  Level FlightAware Approximate
Wed 04:34:50 PM 33.8167 -84.3333 320° Northwest 300 345 9,600  Level Atlanta TRACON
Wed 04:35:00 PM 33.7986 -84.6218 252° West  Level FlightAware Approximate
Wed 04:35:50 PM 33.8167 -84.4500 270° West 326 375 11,100  Level Atlanta TRACON
Wed 04:37:29 PM 33.7969 -84.6439 263° West 366 421 13,200 1,509 Climbing Atlanta Center
Wed 04:38:29 PM 33.7692 -84.7561 253° West 373 429 15,100 1,850 Climbing Atlanta Center
Wed 04:39:29 PM 33.7267 -84.8906 249° West 389 448 16,900 950 Climbing Atlanta Center
Wed 04:40:29 PM 33.6797 -85.0100 245° Southwest 394 453 17,000 50 Climbing Atlanta Center
Wed 04:41:29 PM 33.6308 -85.1317 244° Southwest 399 459 17,000  Level Atlanta Center
Wed 04:42:29 PM 33.5836 -85.2508 245° Southwest 404 465 17,000  Level Atlanta Center
Wed 04:43:29 PM 33.5386 -85.3747 246° West 410 472 17,000 450 Level Atlanta Center
Wed 04:44:29 PM 33.5122 -85.5064 257° West 410 472 17,900 1,200 Climbing Atlanta Center
Wed 04:45:29 PM 33.4961 -85.6231 261° West 405 466 19,400 1,500 Climbing Atlanta Center
Wed 04:46:29 PM 33.4817 -85.7572 263° West 410 472 20,900 1,250 Climbing Atlanta Center
Wed 04:47:29 PM 33.4653 -85.8914 262° West 405 466 21,900 1,000 Climbing Atlanta Center
Wed 04:48:29 PM 33.4544 -86.0356 265° West 419 482 22,900 750 Climbing Atlanta Center
Wed 04:49:29 PM 33.4897 -86.1736 287° West 426 490 23,400 550 Climbing Atlanta Center
Wed 04:50:29 PM 33.5250 -86.3139 287° West 433 498 24,000 500 Climbing Atlanta Center
Wed 04:51:29 PM 33.5617 -86.4669 286° West 433 498 24,400 750 Climbing Atlanta Center
Wed 04:52:29 PM 33.5775 -86.6094 278° West 434 499 25,500 900 Climbing Atlanta Center
Wed 04:53:29 PM 33.5556 -86.7558 260° West 430 495 26,200 700 Climbing Atlanta Center
Wed 04:54:29 PM 33.5333 -86.9047 260° West 445 512 26,900 1,050 Climbing Atlanta Center
Wed 04:55:29 PM 33.5131 -87.0536 261° West 458 527 28,300 1,500 Climbing Atlanta Center
Wed 04:56:29 PM 33.5094 -87.2003 268° West 458 527 29,900 708 Climbing Atlanta Center
Wed 04:57:53 PM 33.5364 -87.3967 279° West 427 491 30,000 42 Climbing Memphis Center
Wed 04:58:53 PM 33.5708 -87.5400 286° West 437 503 30,000  Level Memphis Center
Wed 04:59:53 PM 33.6117 -87.6783 290° West 437 503 30,000 600 Level Memphis Center
Wed 05:00:53 PM 33.6458 -87.8219 286° West 442 509 31,200 1,000 Climbing Memphis Center
Wed 05:01:53 PM 33.6819 -87.9608 287° West 442 509 32,000 400 Climbing Memphis Center
Wed 05:02:53 PM 33.7181 -88.1019 287° West 442 509 32,000 150 Level Memphis Center
Wed 05:03:53 PM 33.7539 -88.2436 287° West 442 509 32,300 650 Climbing Memphis Center
Wed 05:04:53 PM 33.7917 -88.3850 288° West 442 509 33,300 750 Climbing Memphis Center
Wed 05:05:53 PM 33.8272 -88.5267 287° West 442 509 33,800 350 Climbing Memphis Center
Wed 05:06:53 PM 33.8628 -88.6711 287° West 447 514 34,000 100 Climbing Memphis Center
Wed 05:07:53 PM 33.8981 -88.8181 286° West 447 514 34,000  Level Memphis Center
Wed 05:08:53 PM 33.9331 -88.9553 287° West 447 514 34,000  Level Memphis Center
Wed 05:09:53 PM 33.9681 -89.1000 286° West 442 509 34,000  Level Memphis Center
Wed 05:10:53 PM 34.0008 -89.2422 286° West 442 509 34,000  Level Memphis Center
Wed 05:11:53 PM 34.0372 -89.3797 288° West 442 509 34,000  Level Memphis Center
Wed 05:12:53 PM 34.0697 -89.5197 286° West 436 502 34,000  Level Memphis Center
Wed 05:13:53 PM 34.1019 -89.6622 285° West 436 502 34,000  Level Memphis Center
Wed 05:14:53 PM 34.1339 -89.7925 287° West 436 502 34,000  Level Memphis Center
Wed 05:15:53 PM 34.1678 -89.9328 286° West 436 502 34,000  Level Memphis Center
Wed 05:16:53 PM 34.2017 -90.0733 286° West 436 502 34,000  Level Memphis Center
Wed 05:17:53 PM 34.2331 -90.2164 285° West 436 502 34,000  Level Memphis Center
Wed 05:18:53 PM 34.2667 -90.3597 286° West 436 502 34,000  Level Memphis Center
Wed 05:19:53 PM 34.3042 -90.5131 287° West 436 502 34,000  Level Memphis Center
Wed 05:20:53 PM 34.3372 -90.6564 286° West 436 502 34,000  Level Memphis Center
Wed 05:21:53 PM 34.3703 -90.7950 286° West 436 502 34,000  Level Memphis Center
Wed 05:22:53 PM 34.4031 -90.9386 286° West 436 502 34,000  Level Memphis Center
Wed 05:23:53 PM 34.4378 -91.0772 287° West 436 502 34,000  Level Memphis Center
Wed 05:24:53 PM 34.4642 -91.2186 283° West 436 502 34,000  Level Memphis Center
Wed 05:25:53 PM 34.4964 -91.3575 286° West 431 496 34,000  Level Memphis Center
Wed 05:26:53 PM 34.5306 -91.4967 287° West 438 504 34,000  Level Memphis Center
Wed 05:27:53 PM 34.5567 -91.6181 285° West 433 498 34,000  Level Memphis Center
Wed 05:28:53 PM 34.5883 -91.7675 284° West 428 493 34,000  Level Memphis Center
Wed 05:29:53 PM 34.6183 -91.8967 286° West 415 478 34,000  Level Memphis Center
Wed 05:30:53 PM 34.6478 -92.0383 284° West 421 484 34,000  Level Memphis Center
Wed 05:31:53 PM 34.6769 -92.1753 285° West 421 484 34,000  Level Memphis Center
Wed 05:32:53 PM 34.6981 -92.3122 281° West 416 479 34,000  Level Memphis Center
Wed 05:33:53 PM 34.7186 -92.4492 280° West 416 479 34,000  Level Memphis Center
Wed 05:34:53 PM 34.7369 -92.5911 279° West 416 479 34,000  Level Memphis Center
Wed 05:35:53 PM 34.7553 -92.7281 279° West 416 479 34,000  Level Memphis Center
Wed 05:36:53 PM 34.7756 -92.8678 280° West 416 479 34,000  Level Memphis Center
Wed 05:37:53 PM 34.7936 -93.0097 279° West 416 479 34,000  Level Memphis Center
Wed 05:38:53 PM 34.8156 -93.1472 281° West 416 479 34,000  Level Memphis Center
Wed 05:39:53 PM 34.8333 -93.2869 279° West 416 479 34,000  Level Memphis Center
Wed 05:40:53 PM 34.8508 -93.4267 279° West 422 486 34,000  Level Memphis Center
Wed 05:41:53 PM 34.8703 -93.5667 280° West 422 486 34,000  Level Memphis Center
Wed 05:42:53 PM 34.8894 -93.7067 280° West 422 486 34,000  Level Memphis Center
Wed 05:43:53 PM 34.9108 -93.8442 281° West 422 486 34,000  Level Memphis Center
Wed 05:44:53 PM 34.9258 -93.9764 278° West 417 480 34,000  Level Memphis Center
Wed 05:45:53 PM 34.9444 -94.1167 279° West 410 472 34,000  Level Memphis Center
Wed 05:46:53 PM 34.9614 -94.2492 279° West 410 472 34,000  Level Memphis Center
Wed 05:47:53 PM 34.9758 -94.3814 278° West 410 472 34,000  Level Memphis Center
Wed 05:48:53 PM 34.9944 -94.5142 280° West 410 472 34,000  Level Memphis Center
Wed 05:49:16 PM 34.9983 -94.5544 277° West 410 472 34,000  Level Fort Worth Center
Wed 05:50:15 PM 35.0181 -94.6983 280° West 424 488 34,000  Level Fort Worth Center
Wed 05:51:15 PM 35.0378 -94.8322 280° West 418 481 34,000  Level Fort Worth Center
Wed 05:52:15 PM 35.0550 -94.9661 279° West 413 475 34,000  Level Fort Worth Center
Wed 05:53:15 PM 35.0719 -95.0975 279° West 407 468 34,000 -500 Level Fort Worth Center
Wed 05:54:15 PM 35.0911 -95.2289 280° West 407 468 33,000 -1,000 Descending Fort Worth Center
Wed 05:55:15 PM 35.1081 -95.3631 279° West 407 468 32,000 -1,000 Descending Fort Worth Center
Wed 05:56:15 PM 35.1267 -95.4997 279° West 407 468 31,000 -1,400 Descending Fort Worth Center
Wed 05:57:15 PM 35.1414 -95.6439 277° West 412 474 29,200 -1,983 Descending Fort Worth Center
Wed 05:58:16 PM 35.1600 -95.7858 279° West 417 480 27,000 -2,300 Descending Fort Worth Center
Wed 05:59:15 PM 35.1722 -95.9253 276° West 423 487 24,600 -2,471 Descending Fort Worth Center
Wed 06:00:15 PM 35.1883 -96.0697 278° West 428 493 22,100 -2,200 Descending Fort Worth Center
Wed 06:01:15 PM 35.2044 -96.2067 278° West 423 487 20,200 -2,050 Descending Fort Worth Center
Wed 06:02:15 PM 35.2222 -96.3436 279° West 417 480 18,000 -2,234 Descending Fort Worth Center
Wed 06:02:49 PM 35.2314 -96.4275 278° West 422 486 16,700 -2,100 Descending Fort Worth Center
Wed 06:03:15 PM 35.2358 -96.4808 276° West 412 474 15,900 -2,066 Descending Fort Worth Center
Wed 06:03:50 PM 35.2492 -96.5644 281° West 411 473 14,600 -2,262 Descending Fort Worth Center
Wed 06:04:16 PM 35.2514 -96.6153 273° West 406 467 13,600 -2,100 Descending Fort Worth Center
Wed 06:04:50 PM 35.2622 -96.6914 280° West 376 433 12,500 -1,831 Descending Fort Worth Center
Wed 06:05:15 PM 35.2689 -96.7372 280° West 391 450 11,800 -1,200 Descending Fort Worth Center
Wed 06:05:45 PM 35.2900 -96.7931 295° West 330 380 11,400 -1,000 Descending Fort Worth Center
Wed 06:06:15 PM 35.3028 -96.8386 289° West 355 409 10,800 -1,180 Descending Fort Worth Center
Wed 06:06:46 PM 35.3217 -96.8869 296° West 287 330 10,200 -1,400 Descending Fort Worth Center
Wed 06:07:15 PM 35.3364 -96.9275 294° West 319 367 9,400 -1,600 Descending Fort Worth Center
Wed 06:07:46 PM 35.3533 -96.9733 294° West 271 312 8,600 -1,500 Descending Fort Worth Center
Wed 06:08:15 PM 35.3658 -97.0114 292° West 291 335 7,900 -1,279 Descending Fort Worth Center
Wed 06:08:47 PM 35.3808 -97.0597 291° West 270 311 7,300 -1,300 Descending Fort Worth Center
Wed 06:09:15 PM 35.3933 -97.0953 293° West 275 316 6,600 -1,400 Descending Fort Worth Center
Wed 06:09:47 PM 35.4081 -97.1411 292° West 266 306 5,900 -1,279 Descending Fort Worth Center
Wed 06:10:16 PM 35.4247 -97.1792 298° West 270 311 5,300 -885 Descending Fort Worth Center
Wed 06:10:48 PM 35.4417 -97.2300 292° West 279 321 5,000 -305 Descending Fort Worth Center
Wed 06:11:15 PM 35.4583 -97.2683 298° West 276 318 5,000  Level Fort Worth Center
Wed 06:11:49 PM 35.4708 -97.3167 288° West 286 329 5,000  Level Fort Worth Center
Wed 06:12:15 PM 35.4875 -97.3497 302° West 283 326 5,000 -500 Level Fort Worth Center
Wed 06:12:49 PM 35.5042 -97.4086 289° West 265 305 4,500 -885 Descending Fort Worth Center
Wed 06:13:16 PM 35.5147 -97.4314 300° West 277 319 4,100 -492 Descending Fort Worth Center
Wed 06:13:50 PM 35.5292 -97.4850 288° West 232 267 4,000 -102 Descending Fort Worth Center
Wed 06:14:15 PM 35.5397 -97.5056 302° West 260 299 4,000  Level Fort Worth Center
Wed 06:14:51 PM 35.5522 -97.5589 286° West 223 257 4,000 -100 Level Fort Worth Center
Wed 06:15:15 PM 35.5458 -97.5769 247° West 233 268 3,900 -250 Descending Fort Worth Center

Login

Don't have an account? Register now (free) for customized features, flight alerts, and more!